sensor_id;sensor_type;location;lat;lon;timestamp;P1;durP1;ratioP1;P2;durP2;ratioP2
5458;SDS011;2752;49.992;8.422;2023-11-18T00:01:44;31.97;;;10.30;;
5458;SDS011;2752;49.992;8.422;2023-11-18T00:04:11;20.80;;;8.90;;
5458;SDS011;2752;49.992;8.422;2023-11-18T00:06:40;24.70;;;9.90;;
5458;SDS011;2752;49.992;8.422;2023-11-18T00:09:08;21.87;;;8.27;;
5458;SDS011;2752;49.992;8.422;2023-11-18T00:11:38;19.93;;;9.53;;
5458;SDS011;2752;49.992;8.422;2023-11-18T00:14:05;23.53;;;9.20;;
5458;SDS011;2752;49.992;8.422;2023-11-18T00:16:33;17.27;;;8.90;;
5458;SDS011;2752;49.992;8.422;2023-11-18T00:19:01;22.80;;;9.13;;
5458;SDS011;2752;49.992;8.422;2023-11-18T00:21:30;17.07;;;8.83;;
5458;SDS011;2752;49.992;8.422;2023-11-18T00:23:57;16.47;;;7.67;;
5458;SDS011;2752;49.992;8.422;2023-11-18T00:26:24;20.87;;;9.40;;
5458;SDS011;2752;49.992;8.422;2023-11-18T00:28:51;25.20;;;9.93;;
5458;SDS011;2752;49.992;8.422;2023-11-18T00:31:18;19.37;;;8.70;;
5458;SDS011;2752;49.992;8.422;2023-11-18T00:33:47;19.53;;;9.23;;
5458;SDS011;2752;49.992;8.422;2023-11-18T00:36:14;19.93;;;8.73;;
5458;SDS011;2752;49.992;8.422;2023-11-18T00:38:41;18.80;;;7.93;;
5458;SDS011;2752;49.992;8.422;2023-11-18T00:41:08;21.97;;;8.63;;
5458;SDS011;2752;49.992;8.422;2023-11-18T00:43:35;24.07;;;10.63;;
5458;SDS011;2752;49.992;8.422;2023-11-18T00:46:02;17.30;;;7.77;;
5458;SDS011;2752;49.992;8.422;2023-11-18T00:48:30;24.33;;;10.70;;
5458;SDS011;2752;49.992;8.422;2023-11-18T00:50:58;20.50;;;8.73;;
5458;SDS011;2752;49.992;8.422;2023-11-18T00:53:25;23.37;;;10.20;;
5458;SDS011;2752;49.992;8.422;2023-11-18T00:55:52;22.23;;;8.30;;
5458;SDS011;2752;49.992;8.422;2023-11-18T00:58:19;21.30;;;8.57;;
5458;SDS011;2752;49.992;8.422;2023-11-18T01:00:46;20.43;;;8.87;;
5458;SDS011;2752;49.992;8.422;2023-11-18T01:03:13;24.00;;;9.33;;
5458;SDS011;2752;49.992;8.422;2023-11-18T01:05:40;25.13;;;9.70;;
5458;SDS011;2752;49.992;8.422;2023-11-18T01:08:08;32.93;;;8.20;;
5458;SDS011;2752;49.992;8.422;2023-11-18T01:10:35;25.33;;;10.03;;
5458;SDS011;2752;49.992;8.422;2023-11-18T01:13:03;20.47;;;9.30;;
5458;SDS011;2752;49.992;8.422;2023-11-18T01:15:31;21.17;;;10.63;;
5458;SDS011;2752;49.992;8.422;2023-11-18T01:17:58;19.93;;;7.77;;
5458;SDS011;2752;49.992;8.422;2023-11-18T01:20:25;19.60;;;9.07;;
5458;SDS011;2752;49.992;8.422;2023-11-18T01:22:52;16.27;;;9.43;;
5458;SDS011;2752;49.992;8.422;2023-11-18T01:25:21;23.57;;;9.57;;
5458;SDS011;2752;49.992;8.422;2023-11-18T01:27:48;17.67;;;7.50;;
5458;SDS011;2752;49.992;8.422;2023-11-18T01:30:15;16.40;;;8.10;;
5458;SDS011;2752;49.992;8.422;2023-11-18T01:32:43;24.20;;;9.90;;
5458;SDS011;2752;49.992;8.422;2023-11-18T01:35:11;20.07;;;9.20;;
5458;SDS011;2752;49.992;8.422;2023-11-18T01:37:38;31.73;;;9.70;;
5458;SDS011;2752;49.992;8.422;2023-11-18T01:40:05;22.80;;;9.93;;
5458;SDS011;2752;49.992;8.422;2023-11-18T01:42:34;20.70;;;8.80;;
5458;SDS011;2752;49.992;8.422;2023-11-18T01:45:02;18.30;;;8.30;;
5458;SDS011;2752;49.992;8.422;2023-11-18T01:47:31;18.83;;;9.20;;
5458;SDS011;2752;49.992;8.422;2023-11-18T01:49:59;18.40;;;8.70;;
5458;SDS011;2752;49.992;8.422;2023-11-18T01:52:26;19.30;;;9.50;;
5458;SDS011;2752;49.992;8.422;2023-11-18T01:54:55;17.80;;;7.30;;
5458;SDS011;2752;49.992;8.422;2023-11-18T01:57:22;19.10;;;8.07;;
5458;SDS011;2752;49.992;8.422;2023-11-18T01:59:53;27.17;;;9.13;;
5458;SDS011;2752;49.992;8.422;2023-11-18T02:02:20;20.60;;;8.80;;
5458;SDS011;2752;49.992;8.422;2023-11-18T02:04:47;21.10;;;9.33;;
5458;SDS011;2752;49.992;8.422;2023-11-18T02:07:14;18.87;;;8.90;;
5458;SDS011;2752;49.992;8.422;2023-11-18T02:09:41;21.50;;;9.33;;
5458;SDS011;2752;49.992;8.422;2023-11-18T02:12:12;17.83;;;8.33;;
5458;SDS011;2752;49.992;8.422;2023-11-18T02:14:43;20.63;;;9.17;;
5458;SDS011;2752;49.992;8.422;2023-11-18T02:17:14;19.50;;;8.47;;
5458;SDS011;2752;49.992;8.422;2023-11-18T02:19:41;17.90;;;8.27;;
5458;SDS011;2752;49.992;8.422;2023-11-18T02:22:09;20.80;;;8.97;;
5458;SDS011;2752;49.992;8.422;2023-11-18T02:24:36;17.57;;;7.73;;
5458;SDS011;2752;49.992;8.422;2023-11-18T02:27:07;24.17;;;8.97;;
5458;SDS011;2752;49.992;8.422;2023-11-18T02:29:37;16.30;;;7.83;;
5458;SDS011;2752;49.992;8.422;2023-11-18T02:32:07;24.50;;;8.10;;
5458;SDS011;2752;49.992;8.422;2023-11-18T02:34:35;18.47;;;8.40;;
5458;SDS011;2752;49.992;8.422;2023-11-18T02:37:04;21.53;;;7.17;;
5458;SDS011;2752;49.992;8.422;2023-11-18T02:39:35;15.47;;;6.67;;
5458;SDS011;2752;49.992;8.422;2023-11-18T02:42:07;20.10;;;8.70;;
5458;SDS011;2752;49.992;8.422;2023-11-18T02:44:34;14.40;;;6.87;;
5458;SDS011;2752;49.992;8.422;2023-11-18T02:47:02;16.00;;;7.60;;
5458;SDS011;2752;49.992;8.422;2023-11-18T02:49:30;19.30;;;7.20;;
5458;SDS011;2752;49.992;8.422;2023-11-18T02:51:57;20.07;;;8.30;;
5458;SDS011;2752;49.992;8.422;2023-11-18T02:54:24;18.03;;;8.07;;
5458;SDS011;2752;49.992;8.422;2023-11-18T02:56:51;19.90;;;7.93;;
5458;SDS011;2752;49.992;8.422;2023-11-18T02:59:20;18.40;;;7.67;;
5458;SDS011;2752;49.992;8.422;2023-11-18T03:01:47;18.17;;;7.70;;
5458;SDS011;2752;49.992;8.422;2023-11-18T03:04:14;15.63;;;7.40;;
5458;SDS011;2752;49.992;8.422;2023-11-18T03:06:44;20.20;;;8.30;;
5458;SDS011;2752;49.992;8.422;2023-11-18T03:09:11;17.00;;;7.20;;
5458;SDS011;2752;49.992;8.422;2023-11-18T03:11:38;24.10;;;8.23;;
5458;SDS011;2752;49.992;8.422;2023-11-18T03:14:05;16.87;;;7.37;;
5458;SDS011;2752;49.992;8.422;2023-11-18T03:16:35;18.03;;;8.23;;
5458;SDS011;2752;49.992;8.422;2023-11-18T03:19:03;17.07;;;6.53;;
5458;SDS011;2752;49.992;8.422;2023-11-18T03:21:30;19.83;;;7.20;;
5458;SDS011;2752;49.992;8.422;2023-11-18T03:23:57;15.67;;;7.13;;
5458;SDS011;2752;49.992;8.422;2023-11-18T03:26:24;20.50;;;8.27;;
5458;SDS011;2752;49.992;8.422;2023-11-18T03:28:51;15.70;;;6.60;;
5458;SDS011;2752;49.992;8.422;2023-11-18T03:31:18;18.00;;;7.57;;
5458;SDS011;2752;49.992;8.422;2023-11-18T03:33:47;17.90;;;8.17;;
5458;SDS011;2752;49.992;8.422;2023-11-18T03:36:14;20.80;;;8.50;;
5458;SDS011;2752;49.992;8.422;2023-11-18T03:38:42;19.83;;;6.93;;
5458;SDS011;2752;49.992;8.422;2023-11-18T03:41:10;16.67;;;7.20;;
5458;SDS011;2752;49.992;8.422;2023-11-18T03:43:37;22.90;;;8.03;;
5458;SDS011;2752;49.992;8.422;2023-11-18T03:46:05;15.70;;;7.30;;
5458;SDS011;2752;49.992;8.422;2023-11-18T03:48:32;15.53;;;7.80;;
5458;SDS011;2752;49.992;8.422;2023-11-18T03:51:02;19.13;;;7.50;;
5458;SDS011;2752;49.992;8.422;2023-11-18T03:53:29;19.10;;;7.80;;
5458;SDS011;2752;49.992;8.422;2023-11-18T03:55:58;18.50;;;7.20;;
5458;SDS011;2752;49.992;8.422;2023-11-18T03:58:25;18.17;;;6.13;;
5458;SDS011;2752;49.992;8.422;2023-11-18T04:00:52;18.60;;;7.53;;
5458;SDS011;2752;49.992;8.422;2023-11-18T04:03:19;20.63;;;8.27;;
5458;SDS011;2752;49.992;8.422;2023-11-18T04:05:46;24.50;;;7.40;;
5458;SDS011;2752;49.992;8.422;2023-11-18T04:08:15;17.03;;;8.13;;
5458;SDS011;2752;49.992;8.422;2023-11-18T04:10:43;16.00;;;7.20;;
5458;SDS011;2752;49.992;8.422;2023-11-18T04:13:10;18.27;;;6.90;;
5458;SDS011;2752;49.992;8.422;2023-11-18T04:15:37;17.03;;;7.70;;
5458;SDS011;2752;49.992;8.422;2023-11-18T04:18:04;33.23;;;9.33;;
5458;SDS011;2752;49.992;8.422;2023-11-18T04:20:32;25.90;;;7.60;;
5458;SDS011;2752;49.992;8.422;2023-11-18T04:22:59;16.13;;;7.20;;
5458;SDS011;2752;49.992;8.422;2023-11-18T04:25:27;20.63;;;8.10;;
5458;SDS011;2752;49.992;8.422;2023-11-18T04:27:54;23.63;;;8.03;;
5458;SDS011;2752;49.992;8.422;2023-11-18T04:30:21;24.87;;;7.90;;
5458;SDS011;2752;49.992;8.422;2023-11-18T04:32:48;19.87;;;7.90;;
5458;SDS011;2752;49.992;8.422;2023-11-18T04:35:17;20.97;;;8.20;;
5458;SDS011;2752;49.992;8.422;2023-11-18T04:37:47;20.47;;;7.80;;
5458;SDS011;2752;49.992;8.422;2023-11-18T04:40:14;21.87;;;8.30;;
5458;SDS011;2752;49.992;8.422;2023-11-18T04:42:42;15.47;;;7.87;;
5458;SDS011;2752;49.992;8.422;2023-11-18T04:45:10;25.20;;;8.13;;
5458;SDS011;2752;49.992;8.422;2023-11-18T04:47:39;16.23;;;7.03;;
5458;SDS011;2752;49.992;8.422;2023-11-18T04:50:08;16.77;;;7.90;;
5458;SDS011;2752;49.992;8.422;2023-11-18T04:52:35;18.27;;;6.70;;
5458;SDS011;2752;49.992;8.422;2023-11-18T04:55:03;15.50;;;7.20;;
5458;SDS011;2752;49.992;8.422;2023-11-18T04:57:31;14.00;;;6.63;;
5458;SDS011;2752;49.992;8.422;2023-11-18T05:00:00;15.27;;;6.43;;
5458;SDS011;2752;49.992;8.422;2023-11-18T05:02:35;12.70;;;5.87;;
5458;SDS011;2752;49.992;8.422;2023-11-18T05:05:02;12.07;;;6.00;;
5458;SDS011;2752;49.992;8.422;2023-11-18T05:07:30;14.70;;;7.77;;
5458;SDS011;2752;49.992;8.422;2023-11-18T05:09:57;18.40;;;6.03;;
5458;SDS011;2752;49.992;8.422;2023-11-18T05:12:24;16.30;;;8.00;;
5458;SDS011;2752;49.992;8.422;2023-11-18T05:14:51;15.87;;;6.97;;
5458;SDS011;2752;49.992;8.422;2023-11-18T05:17:21;20.93;;;6.00;;
5458;SDS011;2752;49.992;8.422;2023-11-18T05:19:48;17.30;;;7.20;;
5458;SDS011;2752;49.992;8.422;2023-11-18T05:22:15;17.27;;;7.00;;
5458;SDS011;2752;49.992;8.422;2023-11-18T05:24:43;22.67;;;6.77;;
5458;SDS011;2752;49.992;8.422;2023-11-18T05:27:10;20.97;;;7.90;;
5458;SDS011;2752;49.992;8.422;2023-11-18T05:29:37;16.90;;;7.40;;
5458;SDS011;2752;49.992;8.422;2023-11-18T05:32:06;13.80;;;7.60;;
5458;SDS011;2752;49.992;8.422;2023-11-18T05:34:35;20.27;;;7.70;;
5458;SDS011;2752;49.992;8.422;2023-11-18T05:37:02;17.13;;;6.80;;
5458;SDS011;2752;49.992;8.422;2023-11-18T05:39:29;21.23;;;6.77;;
5458;SDS011;2752;49.992;8.422;2023-11-18T05:41:58;23.43;;;7.77;;
5458;SDS011;2752;49.992;8.422;2023-11-18T05:44:25;46.37;;;8.80;;
5458;SDS011;2752;49.992;8.422;2023-11-18T05:46:56;44.87;;;8.07;;
5458;SDS011;2752;49.992;8.422;2023-11-18T05:49:22;30.77;;;8.00;;
5458;SDS011;2752;49.992;8.422;2023-11-18T05:51:50;41.83;;;8.43;;
5458;SDS011;2752;49.992;8.422;2023-11-18T05:54:17;40.07;;;9.53;;
5458;SDS011;2752;49.992;8.422;2023-11-18T05:56:45;25.57;;;8.43;;
5458;SDS011;2752;49.992;8.422;2023-11-18T05:59:12;26.73;;;8.80;;
5458;SDS011;2752;49.992;8.422;2023-11-18T06:01:39;43.77;;;8.70;;
5458;SDS011;2752;49.992;8.422;2023-11-18T06:04:06;25.80;;;8.67;;
5458;SDS011;2752;49.992;8.422;2023-11-18T06:06:34;33.63;;;9.20;;
5458;SDS011;2752;49.992;8.422;2023-11-18T06:09:03;34.47;;;9.40;;
5458;SDS011;2752;49.992;8.422;2023-11-18T06:11:34;37.70;;;9.80;;
5458;SDS011;2752;49.992;8.422;2023-11-18T06:14:02;31.97;;;9.90;;
5458;SDS011;2752;49.992;8.422;2023-11-18T06:16:29;57.93;;;10.47;;
5458;SDS011;2752;49.992;8.422;2023-11-18T06:18:56;40.67;;;9.70;;
5458;SDS011;2752;49.992;8.422;2023-11-18T06:21:24;25.47;;;9.53;;
5458;SDS011;2752;49.992;8.422;2023-11-18T06:23:55;48.27;;;9.43;;
5458;SDS011;2752;49.992;8.422;2023-11-18T06:26:23;27.57;;;8.60;;
5458;SDS011;2752;49.992;8.422;2023-11-18T06:28:51;30.47;;;9.00;;
5458;SDS011;2752;49.992;8.422;2023-11-18T06:31:19;30.63;;;9.20;;
5458;SDS011;2752;49.992;8.422;2023-11-18T06:33:47;20.10;;;7.90;;
5458;SDS011;2752;49.992;8.422;2023-11-18T06:36:16;42.30;;;9.30;;
5458;SDS011;2752;49.992;8.422;2023-11-18T06:38:44;26.23;;;8.70;;
5458;SDS011;2752;49.992;8.422;2023-11-18T06:41:11;30.20;;;8.90;;
5458;SDS011;2752;49.992;8.422;2023-11-18T06:43:42;51.67;;;10.40;;
5458;SDS011;2752;49.992;8.422;2023-11-18T06:46:17;51.17;;;9.97;;
5458;SDS011;2752;49.992;8.422;2023-11-18T06:48:45;24.20;;;7.77;;
5458;SDS011;2752;49.992;8.422;2023-11-18T06:51:13;44.07;;;10.10;;
5458;SDS011;2752;49.992;8.422;2023-11-18T06:53:40;36.97;;;10.57;;
5458;SDS011;2752;49.992;8.422;2023-11-18T06:56:08;37.63;;;9.50;;
5458;SDS011;2752;49.992;8.422;2023-11-18T06:58:36;26.87;;;9.10;;
5458;SDS011;2752;49.992;8.422;2023-11-18T07:01:05;42.60;;;9.27;;
5458;SDS011;2752;49.992;8.422;2023-11-18T07:03:32;54.83;;;10.37;;
5458;SDS011;2752;49.992;8.422;2023-11-18T07:05:59;30.73;;;8.73;;
5458;SDS011;2752;49.992;8.422;2023-11-18T07:08:26;26.00;;;9.70;;
5458;SDS011;2752;49.992;8.422;2023-11-18T07:10:53;22.00;;;10.13;;
5458;SDS011;2752;49.992;8.422;2023-11-18T07:13:21;20.27;;;8.30;;
5458;SDS011;2752;49.992;8.422;2023-11-18T07:15:48;27.30;;;10.40;;
5458;SDS011;2752;49.992;8.422;2023-11-18T07:18:17;45.67;;;10.07;;
5458;SDS011;2752;49.992;8.422;2023-11-18T07:20:47;18.90;;;9.50;;
5458;SDS011;2752;49.992;8.422;2023-11-18T07:23:14;29.67;;;10.10;;
5458;SDS011;2752;49.992;8.422;2023-11-18T07:25:42;27.90;;;10.47;;
5458;SDS011;2752;49.992;8.422;2023-11-18T07:28:09;30.93;;;11.20;;
5458;SDS011;2752;49.992;8.422;2023-11-18T07:30:36;30.53;;;9.93;;
5458;SDS011;2752;49.992;8.422;2023-11-18T07:33:03;28.30;;;10.30;;
5458;SDS011;2752;49.992;8.422;2023-11-18T07:35:34;22.67;;;9.33;;
5458;SDS011;2752;49.992;8.422;2023-11-18T07:38:01;34.03;;;10.23;;
5458;SDS011;2752;49.992;8.422;2023-11-18T07:40:28;21.67;;;9.10;;
5458;SDS011;2752;49.992;8.422;2023-11-18T07:42:58;20.87;;;8.87;;
5458;SDS011;2752;49.992;8.422;2023-11-18T07:45:27;28.20;;;10.27;;
5458;SDS011;2752;49.992;8.422;2023-11-18T07:47:54;35.03;;;10.83;;
5458;SDS011;2752;49.992;8.422;2023-11-18T07:50:21;27.70;;;8.47;;
5458;SDS011;2752;49.992;8.422;2023-11-18T07:52:49;25.50;;;9.50;;
5458;SDS011;2752;49.992;8.422;2023-11-18T07:55:16;28.03;;;9.80;;
5458;SDS011;2752;49.992;8.422;2023-11-18T07:57:43;28.03;;;9.67;;
5458;SDS011;2752;49.992;8.422;2023-11-18T08:00:11;25.73;;;10.10;;
5458;SDS011;2752;49.992;8.422;2023-11-18T08:02:40;38.03;;;12.00;;
5458;SDS011;2752;49.992;8.422;2023-11-18T08:05:07;33.67;;;13.00;;
5458;SDS011;2752;49.992;8.422;2023-11-18T08:07:38;39.40;;;13.87;;
5458;SDS011;2752;49.992;8.422;2023-11-18T08:10:07;35.73;;;13.63;;
5458;SDS011;2752;49.992;8.422;2023-11-18T08:12:37;32.87;;;12.10;;
5458;SDS011;2752;49.992;8.422;2023-11-18T08:15:05;48.67;;;14.50;;
5458;SDS011;2752;49.992;8.422;2023-11-18T08:17:34;52.93;;;13.80;;
5458;SDS011;2752;49.992;8.422;2023-11-18T08:20:01;38.23;;;14.67;;
5458;SDS011;2752;49.992;8.422;2023-11-18T08:22:32;45.20;;;16.30;;
5458;SDS011;2752;49.992;8.422;2023-11-18T08:24:59;35.30;;;14.43;;
5458;SDS011;2752;49.992;8.422;2023-11-18T08:27:27;53.97;;;16.27;;
5458;SDS011;2752;49.992;8.422;2023-11-18T08:29:55;49.07;;;15.20;;
5458;SDS011;2752;49.992;8.422;2023-11-18T08:32:22;52.80;;;15.30;;
5458;SDS011;2752;49.992;8.422;2023-11-18T08:34:50;45.90;;;16.00;;
5458;SDS011;2752;49.992;8.422;2023-11-18T08:37:17;47.77;;;15.43;;
5458;SDS011;2752;49.992;8.422;2023-11-18T08:39:46;56.83;;;16.43;;
5458;SDS011;2752;49.992;8.422;2023-11-18T08:42:13;50.07;;;15.63;;
5458;SDS011;2752;49.992;8.422;2023-11-18T08:44:43;52.37;;;17.07;;
5458;SDS011;2752;49.992;8.422;2023-11-18T08:47:13;62.37;;;18.20;;
5458;SDS011;2752;49.992;8.422;2023-11-18T08:49:40;66.23;;;19.20;;
5458;SDS011;2752;49.992;8.422;2023-11-18T08:52:11;54.97;;;17.60;;
5458;SDS011;2752;49.992;8.422;2023-11-18T08:54:38;53.70;;;16.47;;
5458;SDS011;2752;49.992;8.422;2023-11-18T08:57:25;47.97;;;15.87;;
5458;SDS011;2752;49.992;8.422;2023-11-18T08:59:53;60.20;;;17.13;;
5458;SDS011;2752;49.992;8.422;2023-11-18T09:02:23;63.83;;;19.70;;
5458;SDS011;2752;49.992;8.422;2023-11-18T09:04:54;59.40;;;15.80;;
5458;SDS011;2752;49.992;8.422;2023-11-18T09:07:23;53.77;;;14.53;;
5458;SDS011;2752;49.992;8.422;2023-11-18T09:09:51;69.23;;;17.50;;
5458;SDS011;2752;49.992;8.422;2023-11-18T09:12:18;59.03;;;16.10;;
5458;SDS011;2752;49.992;8.422;2023-11-18T09:14:45;74.07;;;17.33;;
5458;SDS011;2752;49.992;8.422;2023-11-18T09:17:14;55.83;;;16.00;;
5458;SDS011;2752;49.992;8.422;2023-11-18T09:19:41;71.53;;;17.23;;
5458;SDS011;2752;49.992;8.422;2023-11-18T09:22:10;54.97;;;16.20;;
5458;SDS011;2752;49.992;8.422;2023-11-18T09:24:39;56.00;;;16.30;;
5458;SDS011;2752;49.992;8.422;2023-11-18T09:27:06;67.70;;;16.03;;
5458;SDS011;2752;49.992;8.422;2023-11-18T09:29:34;54.17;;;15.73;;
5458;SDS011;2752;49.992;8.422;2023-11-18T09:32:02;67.63;;;17.73;;
5458;SDS011;2752;49.992;8.422;2023-11-18T09:34:32;47.10;;;14.93;;
5458;SDS011;2752;49.992;8.422;2023-11-18T09:36:59;57.70;;;16.77;;
5458;SDS011;2752;49.992;8.422;2023-11-18T09:39:26;63.00;;;18.57;;
5458;SDS011;2752;49.992;8.422;2023-11-18T09:42:03;54.10;;;15.30;;
5458;SDS011;2752;49.992;8.422;2023-11-18T09:44:33;60.93;;;16.97;;
5458;SDS011;2752;49.992;8.422;2023-11-18T09:47:00;52.17;;;16.23;;
5458;SDS011;2752;49.992;8.422;2023-11-18T09:49:37;54.87;;;14.50;;
5458;SDS011;2752;49.992;8.422;2023-11-18T09:52:06;52.67;;;15.47;;
5458;SDS011;2752;49.992;8.422;2023-11-18T09:54:36;40.10;;;13.80;;
5458;SDS011;2752;49.992;8.422;2023-11-18T09:57:07;57.53;;;15.40;;
5458;SDS011;2752;49.992;8.422;2023-11-18T09:59:39;47.87;;;14.00;;
5458;SDS011;2752;49.992;8.422;2023-11-18T10:02:10;39.93;;;12.83;;
5458;SDS011;2752;49.992;8.422;2023-11-18T10:04:38;50.30;;;14.43;;
5458;SDS011;2752;49.992;8.422;2023-11-18T10:07:06;49.87;;;14.27;;
5458;SDS011;2752;49.992;8.422;2023-11-18T10:09:35;57.43;;;14.00;;
5458;SDS011;2752;49.992;8.422;2023-11-18T10:12:04;46.17;;;13.77;;
5458;SDS011;2752;49.992;8.422;2023-11-18T10:14:32;43.13;;;15.33;;
5458;SDS011;2752;49.992;8.422;2023-11-18T10:16:59;54.17;;;16.07;;
5458;SDS011;2752;49.992;8.422;2023-11-18T10:22:18;57.70;;;15.40;;
5458;SDS011;2752;49.992;8.422;2023-11-18T10:24:47;44.20;;;14.93;;
5458;SDS011;2752;49.992;8.422;2023-11-18T10:27:15;49.77;;;15.30;;
5458;SDS011;2752;49.992;8.422;2023-11-18T10:29:44;55.77;;;14.80;;
5458;SDS011;2752;49.992;8.422;2023-11-18T10:32:11;50.80;;;16.90;;
5458;SDS011;2752;49.992;8.422;2023-11-18T10:34:44;45.77;;;14.50;;
5458;SDS011;2752;49.992;8.422;2023-11-18T10:37:12;48.37;;;15.60;;
5458;SDS011;2752;49.992;8.422;2023-11-18T10:39:40;45.50;;;15.70;;
5458;SDS011;2752;49.992;8.422;2023-11-18T10:42:07;45.57;;;14.40;;
5458;SDS011;2752;49.992;8.422;2023-11-18T10:44:34;52.83;;;15.43;;
5458;SDS011;2752;49.992;8.422;2023-11-18T10:47:01;40.63;;;15.50;;
5458;SDS011;2752;49.992;8.422;2023-11-18T10:49:28;50.77;;;16.80;;
5458;SDS011;2752;49.992;8.422;2023-11-18T10:52:01;38.53;;;15.00;;
5458;SDS011;2752;49.992;8.422;2023-11-18T10:54:31;35.33;;;14.67;;
5458;SDS011;2752;49.992;8.422;2023-11-18T10:57:00;36.10;;;15.10;;
5458;SDS011;2752;49.992;8.422;2023-11-18T10:59:32;35.20;;;15.43;;
5458;SDS011;2752;49.992;8.422;2023-11-18T11:01:59;41.93;;;13.40;;
5458;SDS011;2752;49.992;8.422;2023-11-18T11:04:26;44.37;;;16.50;;
5458;SDS011;2752;49.992;8.422;2023-11-18T11:06:58;41.50;;;16.70;;
5458;SDS011;2752;49.992;8.422;2023-11-18T11:09:26;43.70;;;15.97;;
5458;SDS011;2752;49.992;8.422;2023-11-18T11:11:53;38.77;;;16.07;;
5458;SDS011;2752;49.992;8.422;2023-11-18T11:14:22;45.97;;;17.40;;
5458;SDS011;2752;49.992;8.422;2023-11-18T11:16:58;43.00;;;16.77;;
5458;SDS011;2752;49.992;8.422;2023-11-18T11:19:38;43.27;;;17.73;;
5458;SDS011;2752;49.992;8.422;2023-11-18T11:22:09;38.80;;;16.83;;
5458;SDS011;2752;49.992;8.422;2023-11-18T11:24:48;36.57;;;15.70;;
5458;SDS011;2752;49.992;8.422;2023-11-18T11:27:21;36.30;;;16.50;;
5458;SDS011;2752;49.992;8.422;2023-11-18T11:29:57;44.20;;;16.07;;
5458;SDS011;2752;49.992;8.422;2023-11-18T11:32:35;36.90;;;14.60;;
5458;SDS011;2752;49.992;8.422;2023-11-18T11:35:05;38.47;;;15.43;;
5458;SDS011;2752;49.992;8.422;2023-11-18T11:37:33;39.63;;;15.83;;
5458;SDS011;2752;49.992;8.422;2023-11-18T11:40:00;44.27;;;16.57;;
5458;SDS011;2752;49.992;8.422;2023-11-18T11:42:32;37.33;;;16.70;;
5458;SDS011;2752;49.992;8.422;2023-11-18T11:45:01;42.03;;;16.87;;
5458;SDS011;2752;49.992;8.422;2023-11-18T11:47:28;35.07;;;14.33;;
5458;SDS011;2752;49.992;8.422;2023-11-18T11:50:03;33.77;;;14.60;;
5458;SDS011;2752;49.992;8.422;2023-11-18T11:52:35;34.17;;;13.10;;
5458;SDS011;2752;49.992;8.422;2023-11-18T11:55:05;35.20;;;11.70;;
5458;SDS011;2752;49.992;8.422;2023-11-18T11:57:37;24.67;;;10.00;;
5458;SDS011;2752;49.992;8.422;2023-11-18T12:00:10;27.43;;;12.43;;
5458;SDS011;2752;49.992;8.422;2023-11-18T12:02:47;24.47;;;11.60;;
5458;SDS011;2752;49.992;8.422;2023-11-18T12:05:15;20.53;;;10.10;;
5458;SDS011;2752;49.992;8.422;2023-11-18T12:07:44;36.67;;;11.27;;
5458;SDS011;2752;49.992;8.422;2023-11-18T12:10:11;28.33;;;11.80;;
5458;SDS011;2752;49.992;8.422;2023-11-18T12:12:45;21.10;;;10.70;;
5458;SDS011;2752;49.992;8.422;2023-11-18T12:15:14;22.03;;;8.33;;
5458;SDS011;2752;49.992;8.422;2023-11-18T12:20:42;20.73;;;9.00;;
5458;SDS011;2752;49.992;8.422;2023-11-18T12:23:12;16.97;;;8.30;;
5458;SDS011;2752;49.992;8.422;2023-11-18T12:25:40;24.47;;;9.40;;
5458;SDS011;2752;49.992;8.422;2023-11-18T12:28:10;17.60;;;9.10;;
5458;SDS011;2752;49.992;8.422;2023-11-18T12:30:42;16.30;;;8.10;;
5458;SDS011;2752;49.992;8.422;2023-11-18T12:33:21;16.10;;;8.73;;
5458;SDS011;2752;49.992;8.422;2023-11-18T12:38:46;22.13;;;7.67;;
5458;SDS011;2752;49.992;8.422;2023-11-18T12:41:25;17.43;;;6.80;;
5458;SDS011;2752;49.992;8.422;2023-11-18T12:43:59;13.67;;;6.07;;
5458;SDS011;2752;49.992;8.422;2023-11-18T12:46:41;10.97;;;5.50;;
5458;SDS011;2752;49.992;8.422;2023-11-18T12:49:13;12.33;;;5.83;;
5458;SDS011;2752;49.992;8.422;2023-11-18T12:51:41;13.63;;;5.70;;
5458;SDS011;2752;49.992;8.422;2023-11-18T12:54:09;14.77;;;5.90;;
5458;SDS011;2752;49.992;8.422;2023-11-18T12:56:38;10.20;;;5.60;;
5458;SDS011;2752;49.992;8.422;2023-11-18T12:59:09;9.53;;;4.87;;
5458;SDS011;2752;49.992;8.422;2023-11-18T13:01:39;9.90;;;5.43;;
5458;SDS011;2752;49.992;8.422;2023-11-18T13:04:07;15.27;;;6.17;;
5458;SDS011;2752;49.992;8.422;2023-11-18T13:06:34;14.30;;;7.00;;
5458;SDS011;2752;49.992;8.422;2023-11-18T13:09:02;8.87;;;5.77;;
5458;SDS011;2752;49.992;8.422;2023-11-18T13:11:34;8.23;;;4.70;;
5458;SDS011;2752;49.992;8.422;2023-11-18T13:14:03;12.87;;;6.10;;
5458;SDS011;2752;49.992;8.422;2023-11-18T13:16:30;18.87;;;5.77;;
5458;SDS011;2752;49.992;8.422;2023-11-18T13:18:59;10.03;;;5.67;;
5458;SDS011;2752;49.992;8.422;2023-11-18T13:21:26;10.90;;;6.23;;
5458;SDS011;2752;49.992;8.422;2023-11-18T13:23:55;17.37;;;5.60;;
5458;SDS011;2752;49.992;8.422;2023-11-18T13:26:22;16.93;;;6.70;;
5458;SDS011;2752;49.992;8.422;2023-11-18T13:28:49;11.23;;;6.00;;
5458;SDS011;2752;49.992;8.422;2023-11-18T13:31:16;10.17;;;5.00;;
5458;SDS011;2752;49.992;8.422;2023-11-18T13:33:44;9.87;;;5.40;;
5458;SDS011;2752;49.992;8.422;2023-11-18T13:36:15;11.43;;;5.37;;
5458;SDS011;2752;49.992;8.422;2023-11-18T13:38:42;8.63;;;5.73;;
5458;SDS011;2752;49.992;8.422;2023-11-18T13:41:11;13.00;;;6.43;;
5458;SDS011;2752;49.992;8.422;2023-11-18T13:43:42;9.00;;;5.97;;
5458;SDS011;2752;49.992;8.422;2023-11-18T13:46:12;17.57;;;6.90;;
5458;SDS011;2752;49.992;8.422;2023-11-18T13:48:39;18.93;;;6.27;;
5458;SDS011;2752;49.992;8.422;2023-11-18T13:51:06;17.83;;;5.43;;
5458;SDS011;2752;49.992;8.422;2023-11-18T13:53:35;10.17;;;5.30;;
5458;SDS011;2752;49.992;8.422;2023-11-18T13:56:02;11.73;;;6.30;;
5458;SDS011;2752;49.992;8.422;2023-11-18T13:58:29;12.53;;;6.30;;
5458;SDS011;2752;49.992;8.422;2023-11-18T14:00:56;11.40;;;6.13;;
5458;SDS011;2752;49.992;8.422;2023-11-18T14:03:24;17.33;;;6.33;;
5458;SDS011;2752;49.992;8.422;2023-11-18T14:05:51;13.33;;;6.47;;
5458;SDS011;2752;49.992;8.422;2023-11-18T14:08:20;13.27;;;6.27;;
5458;SDS011;2752;49.992;8.422;2023-11-18T14:10:49;14.70;;;6.27;;
5458;SDS011;2752;49.992;8.422;2023-11-18T14:13:16;11.53;;;5.97;;
5458;SDS011;2752;49.992;8.422;2023-11-18T14:15:44;13.97;;;6.30;;
5458;SDS011;2752;49.992;8.422;2023-11-18T14:18:12;10.53;;;5.73;;
5458;SDS011;2752;49.992;8.422;2023-11-18T14:20:39;15.20;;;6.43;;
5458;SDS011;2752;49.992;8.422;2023-11-18T14:23:06;10.47;;;5.93;;
5458;SDS011;2752;49.992;8.422;2023-11-18T14:25:33;15.97;;;5.43;;
5458;SDS011;2752;49.992;8.422;2023-11-18T14:28:02;9.37;;;5.57;;
5458;SDS011;2752;49.992;8.422;2023-11-18T14:30:29;12.40;;;5.77;;
5458;SDS011;2752;49.992;8.422;2023-11-18T14:32:56;21.53;;;5.50;;
5458;SDS011;2752;49.992;8.422;2023-11-18T14:35:23;13.20;;;4.87;;
5458;SDS011;2752;49.992;8.422;2023-11-18T14:37:50;15.40;;;4.70;;
5458;SDS011;2752;49.992;8.422;2023-11-18T14:40:17;8.10;;;4.73;;
5458;SDS011;2752;49.992;8.422;2023-11-18T14:42:45;8.23;;;3.97;;
5458;SDS011;2752;49.992;8.422;2023-11-18T14:45:14;10.40;;;4.07;;
5458;SDS011;2752;49.992;8.422;2023-11-18T14:47:42;13.97;;;4.70;;
5458;SDS011;2752;49.992;8.422;2023-11-18T14:50:10;5.90;;;4.07;;
5458;SDS011;2752;49.992;8.422;2023-11-18T14:52:42;13.90;;;3.90;;
5458;SDS011;2752;49.992;8.422;2023-11-18T14:55:10;8.00;;;3.80;;
5458;SDS011;2752;49.992;8.422;2023-11-18T14:57:38;6.07;;;3.73;;
5458;SDS011;2752;49.992;8.422;2023-11-18T15:00:05;6.57;;;4.43;;
5458;SDS011;2752;49.992;8.422;2023-11-18T15:02:45;6.80;;;4.33;;
5458;SDS011;2752;49.992;8.422;2023-11-18T15:05:12;5.40;;;3.50;;
5458;SDS011;2752;49.992;8.422;2023-11-18T15:07:43;7.23;;;3.97;;
5458;SDS011;2752;49.992;8.422;2023-11-18T15:10:10;10.47;;;3.83;;
5458;SDS011;2752;49.992;8.422;2023-11-18T15:12:38;8.80;;;3.50;;
5458;SDS011;2752;49.992;8.422;2023-11-18T15:15:06;4.40;;;3.07;;